sensor_id;sensor_type;location;lat;lon;timestamp;P1;durP1;ratioP1;P2;durP2;ratioP2
17449;SDS011;8842;51.244;7.102;2023-06-19T00:03:56;9.83;;;9.33;;
17449;SDS011;8842;51.244;7.102;2023-06-19T00:09:07;9.97;;;9.47;;
17449;SDS011;8842;51.244;7.102;2023-06-19T00:14:11;10.30;;;9.70;;
17449;SDS011;8842;51.244;7.102;2023-06-19T00:19:23;10.25;;;9.70;;
17449;SDS011;8842;51.244;7.102;2023-06-19T00:24:28;10.30;;;9.80;;
17449;SDS011;8842;51.244;7.102;2023-06-19T00:29:32;10.80;;;10.20;;
17449;SDS011;8842;51.244;7.102;2023-06-19T00:34:37;10.17;;;9.67;;
17449;SDS011;8842;51.244;7.102;2023-06-19T00:39:41;10.50;;;9.90;;
17449;SDS011;8842;51.244;7.102;2023-06-19T00:44:45;10.30;;;9.70;;
17449;SDS011;8842;51.244;7.102;2023-06-19T00:49:48;10.43;;;9.83;;
17449;SDS011;8842;51.244;7.102;2023-06-19T00:55:00;10.03;;;9.53;;
17449;SDS011;8842;51.244;7.102;2023-06-19T01:00:13;10.10;;;9.60;;
17449;SDS011;8842;51.244;7.102;2023-06-19T01:05:17;10.43;;;9.83;;
17449;SDS011;8842;51.244;7.102;2023-06-19T01:10:24;10.10;;;9.50;;
17449;SDS011;8842;51.244;7.102;2023-06-19T01:15:30;10.30;;;9.70;;
17449;SDS011;8842;51.244;7.102;2023-06-19T01:20:34;10.40;;;9.90;;
17449;SDS011;8842;51.244;7.102;2023-06-19T01:25:46;10.05;;;9.55;;
17449;SDS011;8842;51.244;7.102;2023-06-19T01:30:50;10.37;;;9.77;;
17449;SDS011;8842;51.244;7.102;2023-06-19T01:35:57;10.20;;;9.60;;
17449;SDS011;8842;51.244;7.102;2023-06-19T01:41:09;11.20;;;10.30;;
17449;SDS011;8842;51.244;7.102;2023-06-19T01:46:14;10.10;;;9.60;;
17449;SDS011;8842;51.244;7.102;2023-06-19T01:51:18;10.37;;;9.80;;
17449;SDS011;8842;51.244;7.102;2023-06-19T01:56:22;10.33;;;9.73;;
17449;SDS011;8842;51.244;7.102;2023-06-19T02:01:34;10.73;;;10.10;;
17449;SDS011;8842;51.244;7.102;2023-06-19T02:11:49;9.73;;;9.23;;
17449;SDS011;8842;51.244;7.102;2023-06-19T02:16:53;10.60;;;10.00;;
17449;SDS011;8842;51.244;7.102;2023-06-19T02:22:05;10.50;;;9.90;;
17449;SDS011;8842;51.244;7.102;2023-06-19T02:27:09;10.43;;;9.90;;
17449;SDS011;8842;51.244;7.102;2023-06-19T02:32:21;10.63;;;10.07;;
17449;SDS011;8842;51.244;7.102;2023-06-19T02:37:25;10.70;;;10.10;;
17449;SDS011;8842;51.244;7.102;2023-06-19T02:42:39;11.03;;;10.33;;
17449;SDS011;8842;51.244;7.102;2023-06-19T02:47:43;10.50;;;10.00;;
17449;SDS011;8842;51.244;7.102;2023-06-19T02:52:55;10.30;;;9.70;;
17449;SDS011;8842;51.244;7.102;2023-06-19T02:57:58;10.23;;;9.73;;
17449;SDS011;8842;51.244;7.102;2023-06-19T03:03:10;10.00;;;9.50;;
17449;SDS011;8842;51.244;7.102;2023-06-19T03:08:14;10.30;;;9.80;;
17449;SDS011;8842;51.244;7.102;2023-06-19T03:13:18;10.80;;;10.20;;
17449;SDS011;8842;51.244;7.102;2023-06-19T03:18:30;10.60;;;10.10;;
17449;SDS011;8842;51.244;7.102;2023-06-19T03:23:34;10.10;;;9.60;;
17449;SDS011;8842;51.244;7.102;2023-06-19T03:28:46;10.47;;;9.97;;
17449;SDS011;8842;51.244;7.102;2023-06-19T03:33:50;10.30;;;9.80;;
17449;SDS011;8842;51.244;7.102;2023-06-19T03:39:04;11.03;;;10.43;;
17449;SDS011;8842;51.244;7.102;2023-06-19T03:44:08;11.00;;;10.30;;
17449;SDS011;8842;51.244;7.102;2023-06-19T03:49:20;11.20;;;10.60;;
17449;SDS011;8842;51.244;7.102;2023-06-19T03:54:24;11.10;;;10.40;;
17449;SDS011;8842;51.244;7.102;2023-06-19T03:59:36;10.97;;;10.37;;
17449;SDS011;8842;51.244;7.102;2023-06-19T04:09:51;11.10;;;10.50;;
17449;SDS011;8842;51.244;7.102;2023-06-19T04:14:55;11.00;;;10.40;;
17449;SDS011;8842;51.244;7.102;2023-06-19T04:19:59;11.00;;;10.40;;
17449;SDS011;8842;51.244;7.102;2023-06-19T04:25:10;11.07;;;10.47;;
17449;SDS011;8842;51.244;7.102;2023-06-19T04:30:14;10.97;;;10.37;;
17449;SDS011;8842;51.244;7.102;2023-06-19T04:35:19;11.33;;;10.73;;
17449;SDS011;8842;51.244;7.102;2023-06-19T04:40:23;10.90;;;10.30;;
17449;SDS011;8842;51.244;7.102;2023-06-19T04:45:28;10.50;;;10.00;;
17449;SDS011;8842;51.244;7.102;2023-06-19T04:50:32;10.83;;;10.23;;
17449;SDS011;8842;51.244;7.102;2023-06-19T04:55:43;11.43;;;10.83;;
17449;SDS011;8842;51.244;7.102;2023-06-19T05:00:47;10.63;;;10.10;;
17449;SDS011;8842;51.244;7.102;2023-06-19T05:05:59;11.30;;;10.70;;
17449;SDS011;8842;51.244;7.102;2023-06-19T05:11:03;11.00;;;10.40;;
17449;SDS011;8842;51.244;7.102;2023-06-19T05:16:07;10.70;;;10.20;;
17449;SDS011;8842;51.244;7.102;2023-06-19T05:21:12;11.93;;;11.23;;
17449;SDS011;8842;51.244;7.102;2023-06-19T05:26:23;11.50;;;10.90;;
17449;SDS011;8842;51.244;7.102;2023-06-19T05:31:28;11.60;;;11.00;;
17449;SDS011;8842;51.244;7.102;2023-06-19T05:36:40;11.97;;;11.17;;
17449;SDS011;8842;51.244;7.102;2023-06-19T05:41:44;11.47;;;10.87;;
17449;SDS011;8842;51.244;7.102;2023-06-19T05:46:56;11.13;;;10.53;;
17449;SDS011;8842;51.244;7.102;2023-06-19T05:52:00;11.43;;;10.83;;
17449;SDS011;8842;51.244;7.102;2023-06-19T05:57:11;11.60;;;11.00;;
17449;SDS011;8842;51.244;7.102;2023-06-19T06:02:16;11.60;;;10.70;;
17449;SDS011;8842;51.244;7.102;2023-06-19T06:07:28;10.90;;;10.30;;
17449;SDS011;8842;51.244;7.102;2023-06-19T06:12:33;10.67;;;10.10;;
17449;SDS011;8842;51.244;7.102;2023-06-19T06:17:45;10.37;;;9.87;;
17449;SDS011;8842;51.244;7.102;2023-06-19T06:22:49;10.30;;;9.80;;
17449;SDS011;8842;51.244;7.102;2023-06-19T06:28:01;10.83;;;10.27;;
17449;SDS011;8842;51.244;7.102;2023-06-19T06:33:05;10.30;;;9.80;;
17449;SDS011;8842;51.244;7.102;2023-06-19T06:38:17;11.00;;;10.40;;
17449;SDS011;8842;51.244;7.102;2023-06-19T06:43:21;11.00;;;10.40;;
17449;SDS011;8842;51.244;7.102;2023-06-19T06:48:32;11.20;;;10.60;;
17449;SDS011;8842;51.244;7.102;2023-06-19T06:53:44;10.50;;;10.00;;
17449;SDS011;8842;51.244;7.102;2023-06-19T06:58:49;10.38;;;9.88;;
17449;SDS011;8842;51.244;7.102;2023-06-19T07:04:00;10.48;;;9.98;;
17449;SDS011;8842;51.244;7.102;2023-06-19T07:09:04;10.48;;;9.98;;
17449;SDS011;8842;51.244;7.102;2023-06-19T07:14:16;11.10;;;10.50;;
17449;SDS011;8842;51.244;7.102;2023-06-19T07:19:20;11.33;;;10.72;;
17449;SDS011;8842;51.244;7.102;2023-06-19T07:24:32;11.60;;;11.00;;
17449;SDS011;8842;51.244;7.102;2023-06-19T07:34:47;11.00;;;10.40;;
17449;SDS011;8842;51.244;7.102;2023-06-19T07:39:51;10.40;;;9.90;;
17449;SDS011;8842;51.244;7.102;2023-06-19T07:44:55;10.10;;;9.60;;
17449;SDS011;8842;51.244;7.102;2023-06-19T07:49:59;10.18;;;9.68;;
17449;SDS011;8842;51.244;7.102;2023-06-19T07:55:11;10.55;;;10.05;;
17449;SDS011;8842;51.244;7.102;2023-06-19T08:00:15;10.97;;;10.23;;
17449;SDS011;8842;51.244;7.102;2023-06-19T08:05:20;11.00;;;10.40;;
17449;SDS011;8842;51.244;7.102;2023-06-19T08:10:34;10.30;;;9.80;;
17449;SDS011;8842;51.244;7.102;2023-06-19T08:15:38;10.80;;;10.20;;
17449;SDS011;8842;51.244;7.102;2023-06-19T08:20:50;10.35;;;9.85;;
17449;SDS011;8842;51.244;7.102;2023-06-19T08:31:08;10.80;;;10.20;;
17449;SDS011;8842;51.244;7.102;2023-06-19T08:36:12;9.78;;;9.28;;
17449;SDS011;8842;51.244;7.102;2023-06-19T08:41:17;10.28;;;9.78;;
17449;SDS011;8842;51.244;7.102;2023-06-19T08:46:29;10.35;;;9.85;;
17449;SDS011;8842;51.244;7.102;2023-06-19T08:56:47;9.95;;;9.45;;
17449;SDS011;8842;51.244;7.102;2023-06-19T09:01:51;10.25;;;9.75;;
17449;SDS011;8842;51.244;7.102;2023-06-19T09:07:09;10.50;;;9.90;;
17449;SDS011;8842;51.244;7.102;2023-06-19T09:12:16;10.48;;;9.83;;
17449;SDS011;8842;51.244;7.102;2023-06-19T09:17:30;10.60;;;10.00;;
17449;SDS011;8842;51.244;7.102;2023-06-19T09:22:34;10.58;;;9.98;;
17449;SDS011;8842;51.244;7.102;2023-06-19T09:27:46;10.70;;;10.10;;
17449;SDS011;8842;51.244;7.102;2023-06-19T09:32:50;10.05;;;9.55;;
17449;SDS011;8842;51.244;7.102;2023-06-19T09:38:02;10.75;;;10.15;;
17449;SDS011;8842;51.244;7.102;2023-06-19T09:43:06;10.93;;;10.32;;
17449;SDS011;8842;51.244;7.102;2023-06-19T09:48:19;10.95;;;10.35;;
17449;SDS011;8842;51.244;7.102;2023-06-19T09:53:25;11.20;;;10.60;;
17449;SDS011;8842;51.244;7.102;2023-06-19T09:58:29;11.30;;;10.70;;
17449;SDS011;8842;51.244;7.102;2023-06-19T10:03:35;11.22;;;10.63;;
17449;SDS011;8842;51.244;7.102;2023-06-19T10:08:40;11.80;;;11.10;;
17449;SDS011;8842;51.244;7.102;2023-06-19T10:13:46;11.63;;;10.90;;
17449;SDS011;8842;51.244;7.102;2023-06-19T10:24:01;11.18;;;10.58;;
17449;SDS011;8842;51.244;7.102;2023-06-19T10:29:13;11.00;;;10.40;;
17449;SDS011;8842;51.244;7.102;2023-06-19T10:34:33;11.10;;;10.50;;
17449;SDS011;8842;51.244;7.102;2023-06-19T10:39:38;10.78;;;10.18;;
17449;SDS011;8842;51.244;7.102;2023-06-19T10:44:42;11.18;;;10.58;;
17449;SDS011;8842;51.244;7.102;2023-06-19T10:49:46;11.28;;;10.68;;
17449;SDS011;8842;51.244;7.102;2023-06-19T11:00:05;11.00;;;10.40;;
17449;SDS011;8842;51.244;7.102;2023-06-19T11:05:15;11.50;;;10.90;;
17449;SDS011;8842;51.244;7.102;2023-06-19T11:10:28;11.25;;;10.65;;
17449;SDS011;8842;51.244;7.102;2023-06-19T11:15:33;11.70;;;11.10;;
17449;SDS011;8842;51.244;7.102;2023-06-19T11:20:44;11.53;;;10.93;;
17449;SDS011;8842;51.244;7.102;2023-06-19T11:25:50;11.53;;;10.93;;
17449;SDS011;8842;51.244;7.102;2023-06-19T11:31:02;11.08;;;10.48;;
17449;SDS011;8842;51.244;7.102;2023-06-19T11:36:07;11.30;;;10.68;;
17449;SDS011;8842;51.244;7.102;2023-06-19T11:41:25;11.03;;;10.43;;
17449;SDS011;8842;51.244;7.102;2023-06-19T11:46:31;10.65;;;10.05;;
17449;SDS011;8842;51.244;7.102;2023-06-19T11:51:43;10.60;;;10.00;;
17449;SDS011;8842;51.244;7.102;2023-06-19T11:56:47;11.18;;;10.58;;
17449;SDS011;8842;51.244;7.102;2023-06-19T12:01:51;11.03;;;10.43;;
17449;SDS011;8842;51.244;7.102;2023-06-19T12:07:05;10.38;;;9.88;;
17449;SDS011;8842;51.244;7.102;2023-06-19T12:12:10;11.45;;;10.70;;
17449;SDS011;8842;51.244;7.102;2023-06-19T12:17:22;10.70;;;9.90;;
17449;SDS011;8842;51.244;7.102;2023-06-19T12:22:26;10.82;;;10.23;;
17449;SDS011;8842;51.244;7.102;2023-06-19T12:27:30;10.72;;;10.13;;
17449;SDS011;8842;51.244;7.102;2023-06-19T12:32:34;10.68;;;10.08;;
17449;SDS011;8842;51.244;7.102;2023-06-19T12:37:46;10.70;;;10.10;;
17449;SDS011;8842;51.244;7.102;2023-06-19T12:42:50;10.43;;;9.93;;
17449;SDS011;8842;51.244;7.102;2023-06-19T12:47:54;10.50;;;9.93;;
17449;SDS011;8842;51.244;7.102;2023-06-19T12:53:06;11.30;;;10.60;;
17449;SDS011;8842;51.244;7.102;2023-06-19T12:58:10;10.70;;;10.18;;
17449;SDS011;8842;51.244;7.102;2023-06-19T13:03:22;10.43;;;9.93;;
17449;SDS011;8842;51.244;7.102;2023-06-19T13:13:37;10.55;;;9.98;;
17449;SDS011;8842;51.244;7.102;2023-06-19T13:18:41;10.82;;;10.20;;
17449;SDS011;8842;51.244;7.102;2023-06-19T13:23:53;9.70;;;9.20;;
17449;SDS011;8842;51.244;7.102;2023-06-19T13:28:57;9.68;;;9.18;;
17449;SDS011;8842;51.244;7.102;2023-06-19T13:34:01;10.18;;;9.68;;
17449;SDS011;8842;51.244;7.102;2023-06-19T13:39:13;9.95;;;9.35;;
17449;SDS011;8842;51.244;7.102;2023-06-19T13:44:17;10.90;;;10.10;;
17449;SDS011;8842;51.244;7.102;2023-06-19T13:49:29;10.72;;;10.13;;
17449;SDS011;8842;51.244;7.102;2023-06-19T13:54:33;10.85;;;10.25;;
17449;SDS011;8842;51.244;7.102;2023-06-19T13:59:37;11.05;;;10.45;;
17449;SDS011;8842;51.244;7.102;2023-06-19T14:04:41;10.70;;;10.10;;
17449;SDS011;8842;51.244;7.102;2023-06-19T14:09:45;11.18;;;10.58;;
17449;SDS011;8842;51.244;7.102;2023-06-19T14:14:57;9.95;;;9.45;;
17449;SDS011;8842;51.244;7.102;2023-06-19T14:20:02;9.50;;;9.00;;
17449;SDS011;8842;51.244;7.102;2023-06-19T14:25:14;10.20;;;9.70;;
17449;SDS011;8842;51.244;7.102;2023-06-19T14:30:18;10.60;;;10.00;;
17449;SDS011;8842;51.244;7.102;2023-06-19T14:35:36;10.10;;;9.60;;
17449;SDS011;8842;51.244;7.102;2023-06-19T14:40:41;10.18;;;9.68;;
17449;SDS011;8842;51.244;7.102;2023-06-19T14:45:46;10.60;;;10.00;;
17449;SDS011;8842;51.244;7.102;2023-06-19T14:50:50;10.05;;;9.55;;
17449;SDS011;8842;51.244;7.102;2023-06-19T14:55:55;10.75;;;10.15;;
17449;SDS011;8842;51.244;7.102;2023-06-19T15:00:59;10.70;;;10.10;;
17449;SDS011;8842;51.244;7.102;2023-06-19T15:06:03;10.48;;;9.95;;
17449;SDS011;8842;51.244;7.102;2023-06-19T15:11:15;10.10;;;9.60;;
17449;SDS011;8842;51.244;7.102;2023-06-19T15:16:19;10.05;;;9.55;;
17449;SDS011;8842;51.244;7.102;2023-06-19T15:21:24;9.80;;;9.30;;
17449;SDS011;8842;51.244;7.102;2023-06-19T15:26:36;10.25;;;9.63;;
17449;SDS011;8842;51.244;7.102;2023-06-19T15:31:40;9.58;;;9.08;;
17449;SDS011;8842;51.244;7.102;2023-06-19T15:36:45;9.40;;;8.90;;
17449;SDS011;8842;51.244;7.102;2023-06-19T15:41:49;9.58;;;9.08;;
17449;SDS011;8842;51.244;7.102;2023-06-19T15:46:53;9.75;;;9.25;;
17449;SDS011;8842;51.244;7.102;2023-06-19T15:52:07;9.60;;;9.10;;
17449;SDS011;8842;51.244;7.102;2023-06-19T15:57:11;9.50;;;9.00;;
17449;SDS011;8842;51.244;7.102;2023-06-19T16:02:23;8.95;;;8.45;;
17449;SDS011;8842;51.244;7.102;2023-06-19T16:07:27;8.78;;;8.35;;
17449;SDS011;8842;51.244;7.102;2023-06-19T16:12:31;8.20;;;7.80;;
17449;SDS011;8842;51.244;7.102;2023-06-19T16:17:43;8.05;;;7.65;;
17449;SDS011;8842;51.244;7.102;2023-06-19T16:22:48;7.78;;;7.37;;
17449;SDS011;8842;51.244;7.102;2023-06-19T16:33:03;8.73;;;8.23;;
17449;SDS011;8842;51.244;7.102;2023-06-19T16:38:07;8.78;;;8.28;;
17449;SDS011;8842;51.244;7.102;2023-06-19T16:43:19;9.25;;;8.43;;
17449;SDS011;8842;51.244;7.102;2023-06-19T16:48:23;7.95;;;7.55;;
17449;SDS011;8842;51.244;7.102;2023-06-19T16:58:38;8.28;;;7.87;;
17449;SDS011;8842;51.244;7.102;2023-06-19T17:08:56;9.25;;;8.75;;
17449;SDS011;8842;51.244;7.102;2023-06-19T17:14:00;9.18;;;8.68;;
17449;SDS011;8842;51.244;7.102;2023-06-19T17:19:11;8.80;;;8.40;;
17449;SDS011;8842;51.244;7.102;2023-06-19T17:24:16;8.60;;;8.10;;
17449;SDS011;8842;51.244;7.102;2023-06-19T17:29:20;9.15;;;8.68;;
17449;SDS011;8842;51.244;7.102;2023-06-19T17:34:31;9.00;;;8.50;;
17449;SDS011;8842;51.244;7.102;2023-06-19T17:39:43;8.23;;;7.83;;
17449;SDS011;8842;51.244;7.102;2023-06-19T17:44:47;8.53;;;8.13;;
17449;SDS011;8842;51.244;7.102;2023-06-19T17:49:51;8.58;;;8.18;;
17449;SDS011;8842;51.244;7.102;2023-06-19T17:54:55;8.15;;;7.75;;
17449;SDS011;8842;51.244;7.102;2023-06-19T17:59:59;8.50;;;8.00;;
17449;SDS011;8842;51.244;7.102;2023-06-19T18:05:11;8.45;;;8.05;;
17449;SDS011;8842;51.244;7.102;2023-06-19T18:10:15;7.78;;;7.37;;
17449;SDS011;8842;51.244;7.102;2023-06-19T18:15:19;8.38;;;7.90;;
17449;SDS011;8842;51.244;7.102;2023-06-19T18:20:31;7.60;;;7.20;;
17449;SDS011;8842;51.244;7.102;2023-06-19T18:25:35;8.70;;;8.20;;
17449;SDS011;8842;51.244;7.102;2023-06-19T18:30:47;8.20;;;7.80;;
17449;SDS011;8842;51.244;7.102;2023-06-19T18:35:51;8.83;;;8.43;;
17449;SDS011;8842;51.244;7.102;2023-06-19T18:41:02;8.60;;;8.15;;
17449;SDS011;8842;51.244;7.102;2023-06-19T18:46:06;8.73;;;8.33;;
17449;SDS011;8842;51.244;7.102;2023-06-19T18:51:18;9.53;;;9.03;;
17449;SDS011;8842;51.244;7.102;2023-06-19T18:56:22;8.95;;;8.45;;
17449;SDS011;8842;51.244;7.102;2023-06-19T19:01:34;8.80;;;8.30;;
17449;SDS011;8842;51.244;7.102;2023-06-19T19:06:38;9.10;;;8.60;;
17449;SDS011;8842;51.244;7.102;2023-06-19T19:11:50;9.08;;;8.58;;
17449;SDS011;8842;51.244;7.102;2023-06-19T19:16:55;9.20;;;8.65;;
17449;SDS011;8842;51.244;7.102;2023-06-19T19:21:59;8.65;;;8.18;;
17449;SDS011;8842;51.244;7.102;2023-06-19T19:27:11;9.85;;;9.08;;
17449;SDS011;8842;51.244;7.102;2023-06-19T19:32:15;9.30;;;8.80;;
17449;SDS011;8842;51.244;7.102;2023-06-19T19:37:27;9.90;;;9.40;;
17449;SDS011;8842;51.244;7.102;2023-06-19T19:42:31;9.50;;;9.00;;
17449;SDS011;8842;51.244;7.102;2023-06-19T19:47:46;9.90;;;9.40;;
17449;SDS011;8842;51.244;7.102;2023-06-19T19:52:50;9.80;;;9.30;;
17449;SDS011;8842;51.244;7.102;2023-06-19T19:57:54;9.85;;;9.35;;
17449;SDS011;8842;51.244;7.102;2023-06-19T20:03:00;9.65;;;9.15;;
17449;SDS011;8842;51.244;7.102;2023-06-19T20:08:12;9.70;;;9.20;;
17449;SDS011;8842;51.244;7.102;2023-06-19T20:13:16;9.65;;;9.15;;
17449;SDS011;8842;51.244;7.102;2023-06-19T20:18:27;9.60;;;9.10;;
17449;SDS011;8842;51.244;7.102;2023-06-19T20:23:31;9.40;;;8.90;;
17449;SDS011;8842;51.244;7.102;2023-06-19T20:28:43;9.70;;;9.20;;
17449;SDS011;8842;51.244;7.102;2023-06-19T20:33:47;8.83;;;8.43;;
17449;SDS011;8842;51.244;7.102;2023-06-19T20:38:59;9.03;;;8.63;;
17449;SDS011;8842;51.244;7.102;2023-06-19T20:44:05;9.60;;;9.10;;
17449;SDS011;8842;51.244;7.102;2023-06-19T20:49:09;9.30;;;8.80;;
17449;SDS011;8842;51.244;7.102;2023-06-19T20:54:21;9.90;;;9.40;;
17449;SDS011;8842;51.244;7.102;2023-06-19T20:59:25;9.75;;;9.25;;
17449;SDS011;8842;51.244;7.102;2023-06-19T21:04:36;9.80;;;9.30;;
17449;SDS011;8842;51.244;7.102;2023-06-19T21:09:40;9.63;;;9.13;;
17449;SDS011;8842;51.244;7.102;2023-06-19T21:14:52;10.10;;;9.50;;
17449;SDS011;8842;51.244;7.102;2023-06-19T21:19:56;9.83;;;9.33;;
17449;SDS011;8842;51.244;7.102;2023-06-19T21:25:01;9.80;;;9.23;;
17449;SDS011;8842;51.244;7.102;2023-06-19T21:30:12;9.63;;;9.10;;
17449;SDS011;8842;51.244;7.102;2023-06-19T21:35:17;9.50;;;9.00;;
17449;SDS011;8842;51.244;7.102;2023-06-19T21:40:21;9.65;;;9.15;;
17449;SDS011;8842;51.244;7.102;2023-06-19T21:45:34;10.30;;;9.70;;
17449;SDS011;8842;51.244;7.102;2023-06-19T21:50:38;10.40;;;9.80;;
17449;SDS011;8842;51.244;7.102;2023-06-19T21:55:50;10.47;;;9.93;;
17449;SDS011;8842;51.244;7.102;2023-06-19T22:00:54;10.10;;;9.50;;
17449;SDS011;8842;51.244;7.102;2023-06-19T22:06:06;10.20;;;9.70;;
17449;SDS011;8842;51.244;7.102;2023-06-19T22:11:10;10.30;;;9.70;;
17449;SDS011;8842;51.244;7.102;2023-06-19T22:16:36;10.50;;;9.90;;
17449;SDS011;8842;51.244;7.102;2023-06-19T22:21:40;11.22;;;10.43;;
17449;SDS011;8842;51.244;7.102;2023-06-19T22:26:52;10.70;;;10.10;;
17449;SDS011;8842;51.244;7.102;2023-06-19T22:31:56;10.73;;;10.10;;
17449;SDS011;8842;51.244;7.102;2023-06-19T22:37:08;10.80;;;10.20;;
17449;SDS011;8842;51.244;7.102;2023-06-19T22:42:12;10.30;;;9.70;;
17449;SDS011;8842;51.244;7.102;2023-06-19T22:47:24;10.55;;;9.95;;
17449;SDS011;8842;51.244;7.102;2023-06-19T22:52:28;10.50;;;9.90;;
17449;SDS011;8842;51.244;7.102;2023-06-19T22:57:40;9.98;;;9.48;;
17449;SDS011;8842;51.244;7.102;2023-06-19T23:02:44;10.13;;;9.63;;
17449;SDS011;8842;51.244;7.102;2023-06-19T23:07:55;10.70;;;10.10;;
17449;SDS011;8842;51.244;7.102;2023-06-19T23:12:59;10.38;;;9.78;;
17449;SDS011;8842;51.244;7.102;2023-06-19T23:18:11;10.75;;;10.03;;
17449;SDS011;8842;51.244;7.102;2023-06-19T23:23:15;10.23;;;9.73;;
17449;SDS011;8842;51.244;7.102;2023-06-19T23:28:22;10.20;;;9.70;;
17449;SDS011;8842;51.244;7.102;2023-06-19T23:33:27;10.30;;;9.70;;
17449;SDS011;8842;51.244;7.102;2023-06-19T23:38:38;10.72;;;10.00;;
17449;SDS011;8842;51.244;7.102;2023-06-19T23:48:53;10.20;;;9.70;;
17449;SDS011;8842;51.244;7.102;2023-06-19T23:54:05;10.30;;;9.80;;
17449;SDS011;8842;51.244;7.102;2023-06-19T23:59:09;10.15;;;9.65;;
